Time;durP1;ratioP1;P1;durP2;ratioP2;P2;SDS_P1;SDS_P2;PMS_P1;PMS_P2;Temp;Humidity;BMP_temperature;BMP_pressure;BME280_temperature;BME280_humidity;BME280_pressure;Samples;Min_cycle;Max_cycle;Signal;HPM_P1;HPM_P2
2020/12/10 00:01:14;;;;;;;;;;;25.10;57.70;;;;;;4919956;29;20426;-85
2020/12/10 00:03:41;;;;;;;;;;;25.10;57.30;;;;;;4920445;29;19915;-81
2020/12/10 00:06:08;;;;;;;;;;;25.10;58.00;;;;;;4934826;29;19923;-80
2020/12/10 00:08:34;;;;;;;;;;;25.30;57.60;;;;;;4933863;29;19942;-82
2020/12/10 00:11:01;;;;;;;;;;;25.60;55.80;;;;;;4916171;29;20526;-74
2020/12/10 00:13:28;;;;;;;;;;;25.80;54.50;;;;;;4917258;29;20290;-80
2020/12/10 00:15:54;;;;;;;;;;;26.00;54.70;;;;;;4918174;29;19969;-80
2020/12/10 00:18:21;;;;;;;;;;;25.90;55.00;;;;;;4917726;29;19927;-82
2020/12/10 00:20:51;;;;;;;;;;;25.90;55.20;;;;;;4917940;29;19997;-82
2020/12/10 00:23:17;;;;;;;;;;;25.80;56.00;;;;;;4919377;29;19911;-82
2020/12/10 00:25:45;;;;;;;;;;;26.00;54.50;;;;;;4918841;29;20251;-80
2020/12/10 00:28:13;;;;;;;;;;;26.20;54.10;;;;;;4917691;29;19919;-83
2020/12/10 00:30:40;;;;;;;;;;;26.40;54.00;;;;;;4917521;29;19933;-82
2020/12/10 00:33:06;;;;;;;;;;;26.50;53.80;;;;;;4923229;29;19907;-80
2020/12/10 00:35:33;;;;;;;;;;;26.60;53.50;;;;;;4917667;29;19914;-82
2020/12/10 00:38:00;;;;;;;;;;;26.80;53.50;;;;;;4918000;29;19919;-79
2020/12/10 00:40:26;;;;;;;;;;;27.00;52.90;;;;;;4921973;29;19907;-79
2020/12/10 00:42:53;;;;;;;;;;;27.40;51.50;;;;;;4913624;29;20724;-79
2020/12/10 00:45:20;;;;;;;;;;;27.40;51.60;;;;;;4909871;29;20014;-80
2020/12/10 00:47:47;;;;;;;;;;;27.20;52.10;;;;;;4923528;29;19918;-78
2020/12/10 00:50:20;;;;;;;;;;;27.50;51.50;;;;;;4935428;29;19935;-80
2020/12/10 00:52:46;;;;;;;;;;;27.40;49.70;;;;;;4907245;29;19915;-81
2020/12/10 00:55:13;;;;;;;;;;;27.40;49.40;;;;;;4919063;29;19927;-81
2020/12/10 00:57:40;;;;;;;;;;;27.00;49.50;;;;;;4917110;29;19963;-79
2020/12/10 01:00:07;;;;;;;;;;;27.10;50.90;;;;;;4916094;29;19939;-78
2020/12/10 01:02:34;;;;;;;;;;;27.00;53.60;;;;;;4919344;29;19911;-78
2020/12/10 01:05:01;;;;;;;;;;;26.80;56.10;;;;;;4917036;29;20315;-80
2020/12/10 01:07:33;;;;;;;;;;;26.90;56.50;;;;;;4916272;29;19911;-80
2020/12/10 01:10:01;;;;;;;;;;;26.30;58.50;;;;;;4917260;29;19947;-80
2020/12/10 01:12:28;;;;;;;;;;;26.00;59.10;;;;;;4916494;29;19930;-81
2020/12/10 01:14:54;;;;;;;;;;;26.00;58.80;;;;;;4907173;29;19907;-79
2020/12/10 01:17:24;;;;;;;;;;;25.90;57.30;;;;;;4918978;29;19919;-79
2020/12/10 01:19:51;;;;;;;;;;;26.10;56.30;;;;;;4907039;29;19957;-80
2020/12/10 01:22:17;;;;;;;;;;;26.10;57.10;;;;;;4918988;29;20330;-80
2020/12/10 01:24:44;;;;;;;;;;;26.30;56.10;;;;;;4914415;29;19911;-80
2020/12/10 01:27:11;;;;;;;;;;;26.50;56.70;;;;;;4918189;29;19922;-79
2020/12/10 01:29:37;;;;;;;;;;;26.30;57.90;;;;;;4916111;29;19911;-80
2020/12/10 01:32:05;;;;;;;;;;;26.40;58.80;;;;;;4910857;29;19939;-82
2020/12/10 01:34:31;;;;;;;;;;;26.60;59.00;;;;;;4903011;29;19966;-80
2020/12/10 01:36:58;;;;;;;;;;;26.10;60.60;;;;;;4920295;29;19914;-81
2020/12/10 01:39:25;;;;;;;;;;;25.30;62.70;;;;;;4908902;29;20022;-83
2020/12/10 01:41:56;;;;;;;;;;;25.00;64.20;;;;;;4902484;29;19942;-81
2020/12/10 01:44:22;;;;;;;;;;;25.20;64.10;;;;;;4895593;29;20366;-81
2020/12/10 01:46:50;;;;;;;;;;;25.10;63.10;;;;;;4912951;29;20553;-81
2020/12/10 01:49:16;;;;;;;;;;;25.10;64.50;;;;;;4914938;29;19911;-77
2020/12/10 01:51:49;;;;;;;;;;;25.10;63.00;;;;;;4897793;29;19910;-78
2020/12/10 01:54:16;;;;;;;;;;;25.00;64.30;;;;;;4915364;29;19946;-81
2020/12/10 01:56:45;;;;;;;;;;;24.90;64.40;;;;;;4938230;29;19930;-78
2020/12/10 01:59:13;;;;;;;;;;;24.60;64.50;;;;;;4936428;29;19970;-82
2020/12/10 02:01:43;;;;;;;;;;;24.50;65.90;;;;;;4909305;29;19919;-81
2020/12/10 02:04:33;;;;;;;;;;;24.50;65.50;;;;;;4915188;29;19919;-80
2020/12/10 02:07:05;;;;;;;;;;;24.40;66.30;;;;;;4915007;29;19951;-80
2020/12/10 02:09:35;;;;;;;;;;;24.50;67.10;;;;;;4922445;29;19913;-80
2020/12/10 02:12:01;;;;;;;;;;;24.50;67.20;;;;;;4923704;29;20036;-80
2020/12/10 02:14:34;;;;;;;;;;;24.30;67.90;;;;;;4914676;29;19907;-79
2020/12/10 02:17:02;;;;;;;;;;;24.40;67.80;;;;;;4933871;29;20018;-78
2020/12/10 02:19:29;;;;;;;;;;;24.30;68.60;;;;;;4929681;29;19907;-82
2020/12/10 02:21:59;;;;;;;;;;;24.20;69.10;;;;;;4915212;29;20282;-79
2020/12/10 02:24:29;;;;;;;;;;;24.10;69.20;;;;;;4914802;29;19959;-81
2020/12/10 02:26:55;;;;;;;;;;;24.10;69.50;;;;;;4919800;29;19896;-80
2020/12/10 02:29:23;;;;;;;;;;;24.10;70.00;;;;;;4935550;29;19978;-80
2020/12/10 02:31:50;;;;;;;;;;;24.10;70.70;;;;;;4918601;29;19911;-80
2020/12/10 02:34:17;;;;;;;;;;;24.00;70.30;;;;;;4914804;29;20520;-81
2020/12/10 02:36:44;;;;;;;;;;;23.70;71.20;;;;;;4915348;29;19911;-82
2020/12/10 02:39:11;;;;;;;;;;;23.90;71.70;;;;;;4919832;29;19973;-81
2020/12/10 02:41:37;;;;;;;;;;;23.70;70.90;;;;;;4933475;29;20122;-82
2020/12/10 02:44:05;;;;;;;;;;;23.70;71.70;;;;;;4917817;29;19933;-84
2020/12/10 02:46:32;;;;;;;;;;;23.80;71.30;;;;;;4891844;29;19915;-81
2020/12/10 02:48:59;;;;;;;;;;;23.90;71.00;;;;;;4914950;29;19919;-81
2020/12/10 02:51:26;;;;;;;;;;;23.80;70.00;;;;;;4913346;29;19915;-80
2020/12/10 02:53:52;;;;;;;;;;;23.90;70.20;;;;;;4914134;29;20461;-81
2020/12/10 02:56:19;;;;;;;;;;;24.00;70.10;;;;;;4913905;29;20633;-81
2020/12/10 02:58:51;;;;;;;;;;;24.00;70.30;;;;;;4913356;29;19937;-80
2020/12/10 03:01:18;;;;;;;;;;;23.70;70.50;;;;;;4913400;29;19914;-79
2020/12/10 03:03:45;;;;;;;;;;;23.50;72.30;;;;;;4913294;29;19911;-78
2020/12/10 03:06:12;;;;;;;;;;;23.50;72.10;;;;;;4914589;29;19907;-82
2020/12/10 03:08:40;;;;;;;;;;;23.50;72.00;;;;;;4915196;29;19907;-82
2020/12/10 03:11:07;;;;;;;;;;;23.20;73.00;;;;;;4914759;29;19963;-80
2020/12/10 03:13:33;;;;;;;;;;;23.50;71.50;;;;;;4914090;29;19917;-80
2020/12/10 03:16:05;;;;;;;;;;;23.40;71.50;;;;;;4914144;29;19975;-80
2020/12/10 03:18:33;;;;;;;;;;;23.30;72.30;;;;;;4897373;29;19922;-81
2020/12/10 03:21:02;;;;;;;;;;;23.50;72.50;;;;;;4914190;29;20293;-82
2020/12/10 03:23:29;;;;;;;;;;;23.70;71.60;;;;;;4914316;29;19911;-80
2020/12/10 03:25:56;;;;;;;;;;;23.70;71.00;;;;;;4914750;29;19965;-79
2020/12/10 03:28:22;;;;;;;;;;;23.30;72.30;;;;;;4897488;29;19915;-81
2020/12/10 03:30:49;;;;;;;;;;;23.20;73.40;;;;;;4915009;29;19907;-79
2020/12/10 03:33:17;;;;;;;;;;;23.10;74.00;;;;;;4914459;29;19914;-82
2020/12/10 03:35:44;;;;;;;;;;;23.10;73.60;;;;;;4897560;29;19911;-81
2020/12/10 03:38:14;;;;;;;;;;;23.10;73.90;;;;;;4920715;29;20057;-82
2020/12/10 03:40:41;;;;;;;;;;;23.00;74.20;;;;;;4936394;29;19911;-80
2020/12/10 03:43:07;;;;;;;;;;;22.90;74.30;;;;;;4916608;29;19978;-81
2020/12/10 03:45:36;;;;;;;;;;;22.90;74.70;;;;;;4913589;29;19907;-81
2020/12/10 03:48:04;;;;;;;;;;;22.80;74.70;;;;;;4913494;29;20366;-81
2020/12/10 03:50:33;;;;;;;;;;;22.80;75.30;;;;;;4915510;29;19922;-79
2020/12/10 03:52:59;;;;;;;;;;;22.90;74.60;;;;;;4899153;29;19915;-80
2020/12/10 03:55:26;;;;;;;;;;;23.00;74.60;;;;;;4915492;29;19919;-82
2020/12/10 03:57:53;;;;;;;;;;;23.10;73.60;;;;;;4932998;29;19919;-82
2020/12/10 04:00:20;;;;;;;;;;;23.10;72.80;;;;;;4931144;29;19942;-80
2020/12/10 04:02:47;;;;;;;;;;;23.10;73.00;;;;;;4914427;29;20291;-79
2020/12/10 04:05:17;;;;;;;;;;;23.20;72.90;;;;;;4915107;29;20037;-80
2020/12/10 04:07:47;;;;;;;;;;;23.10;72.20;;;;;;4900557;29;19911;-79
2020/12/10 04:10:15;;;;;;;;;;;22.80;73.10;;;;;;4917958;29;19954;-82
2020/12/10 04:12:42;;;;;;;;;;;22.60;74.00;;;;;;4903886;29;19919;-79
2020/12/10 04:15:11;;;;;;;;;;;22.40;74.30;;;;;;4931458;29;19977;-80
2020/12/10 04:17:38;;;;;;;;;;;22.40;74.80;;;;;;4935417;29;19935;-80
2020/12/10 04:20:05;;;;;;;;;;;22.50;74.10;;;;;;4919015;29;20376;-80
2020/12/10 04:22:31;;;;;;;;;;;22.40;74.30;;;;;;4916820;29;19917;-81
2020/12/10 04:24:58;;;;;;;;;;;22.20;74.70;;;;;;4918074;29;20009;-77
2020/12/10 04:27:25;;;;;;;;;;;22.00;75.90;;;;;;4918375;29;19923;-80
2020/12/10 04:29:52;;;;;;;;;;;22.00;75.90;;;;;;4920496;29;19915;-77
2020/12/10 04:32:21;;;;;;;;;;;22.10;75.40;;;;;;4936844;29;20282;-80
2020/12/10 04:34:47;;;;;;;;;;;22.10;75.60;;;;;;4936888;29;19907;-84
2020/12/10 04:37:14;;;;;;;;;;;22.20;74.60;;;;;;4936644;29;19959;-83
2020/12/10 04:39:41;;;;;;;;;;;22.10;75.30;;;;;;4936495;29;19910;-81
2020/12/10 04:42:09;;;;;;;;;;;21.80;75.60;;;;;;4918704;29;19915;-82
2020/12/10 04:44:36;;;;;;;;;;;21.80;76.00;;;;;;4918493;29;19930;-81
2020/12/10 04:47:03;;;;;;;;;;;21.90;75.80;;;;;;4916843;29;19994;-82
2020/12/10 04:49:30;;;;;;;;;;;22.00;75.30;;;;;;4907726;29;19911;-79
2020/12/10 04:51:58;;;;;;;;;;;21.80;75.40;;;;;;4936332;29;20271;-81
2020/12/10 04:54:24;;;;;;;;;;;21.70;76.00;;;;;;4931870;29;19907;-80
2020/12/10 04:56:54;;;;;;;;;;;21.60;76.00;;;;;;4938162;29;20003;-80
2020/12/10 04:59:23;;;;;;;;;;;21.50;76.70;;;;;;4938661;29;19967;-78
2020/12/10 05:01:52;;;;;;;;;;;21.40;76.50;;;;;;4938737;29;19911;-81
2020/12/10 05:04:19;;;;;;;;;;;21.50;76.20;;;;;;4938069;29;19895;-79
2020/12/10 05:06:51;;;;;;;;;;;21.50;76.30;;;;;;4938440;29;19907;-80
2020/12/10 05:09:18;;;;;;;;;;;21.60;76.00;;;;;;4937836;29;19963;-80
2020/12/10 05:11:45;;;;;;;;;;;21.70;75.70;;;;;;4921639;29;19891;-82
2020/12/10 05:14:11;;;;;;;;;;;21.90;75.20;;;;;;4939454;29;19891;-79
2020/12/10 05:16:43;;;;;;;;;;;21.90;74.40;;;;;;4941443;29;19919;-82
2020/12/10 05:19:31;;;;;;;;;;;21.80;74.30;;;;;;4937054;29;19930;-80
2020/12/10 05:22:04;;;;;;;;;;;21.50;75.70;;;;;;4936899;29;19891;-79
2020/12/10 05:24:33;;;;;;;;;;;21.50;76.30;;;;;;4937155;29;19911;-81
2020/12/10 05:27:15;;;;;;;;;;;21.60;75.90;;;;;;4925312;29;19990;-83
2020/12/10 05:29:42;;;;;;;;;;;21.70;75.50;;;;;;4898608;29;19983;-82
2020/12/10 05:32:27;;;;;;;;;;;21.70;74.80;;;;;;4907054;29;19933;-79
2020/12/10 05:34:54;;;;;;;;;;;21.60;75.50;;;;;;4918124;29;19913;-80
2020/12/10 05:37:27;;;;;;;;;;;21.60;75.20;;;;;;4918409;29;20070;-80
2020/12/10 05:40:01;;;;;;;;;;;21.60;74.70;;;;;;4920025;29;19998;-80
2020/12/10 05:42:37;;;;;;;;;;;21.60;75.00;;;;;;4919303;29;19910;-83
2020/12/10 05:45:15;;;;;;;;;;;21.60;75.30;;;;;;4889838;29;19994;-80
2020/12/10 05:47:51;;;;;;;;;;;21.60;74.60;;;;;;4920983;29;19915;-82
2020/12/10 05:50:25;;;;;;;;;;;21.60;74.10;;;;;;4901471;29;20732;-78
2020/12/10 05:53:08;;;;;;;;;;;21.60;73.80;;;;;;4888350;29;19942;-80
2020/12/10 05:55:36;;;;;;;;;;;21.60;73.40;;;;;;4916817;29;19911;-81
2020/12/10 05:58:03;;;;;;;;;;;21.40;73.30;;;;;;4914009;29;19973;-85
2020/12/10 06:00:30;;;;;;;;;;;21.30;73.50;;;;;;4917007;29;19914;-83
2020/12/10 06:02:57;;;;;;;;;;;21.40;73.60;;;;;;4917332;29;20251;-79
2020/12/10 06:05:27;;;;;;;;;;;21.50;73.40;;;;;;4917439;29;19907;-80
2020/12/10 06:07:59;;;;;;;;;;;21.50;73.90;;;;;;4912491;29;19919;-80
2020/12/10 06:10:26;;;;;;;;;;;21.50;73.90;;;;;;4911583;29;20378;-80
2020/12/10 06:12:53;;;;;;;;;;;21.50;73.80;;;;;;4916416;29;19915;-80
2020/12/10 06:15:24;;;;;;;;;;;21.50;74.30;;;;;;4916892;29;19921;-83
2020/12/10 06:18:05;;;;;;;;;;;21.50;73.20;;;;;;4911759;29;19923;-82
2020/12/10 06:20:32;;;;;;;;;;;21.40;73.00;;;;;;4916131;29;19919;-79
2020/12/10 06:23:19;;;;;;;;;;;21.40;72.40;;;;;;4904655;29;19911;-80
2020/12/10 06:25:46;;;;;;;;;;;21.40;72.40;;;;;;4911336;29;19918;-80
2020/12/10 06:28:16;;;;;;;;;;;21.30;73.10;;;;;;4917826;29;19918;-81
2020/12/10 06:30:43;;;;;;;;;;;21.20;73.30;;;;;;4902048;29;19915;-79
2020/12/10 06:33:11;;;;;;;;;;;21.10;73.50;;;;;;4907892;29;19910;-78
2020/12/10 06:35:39;;;;;;;;;;;21.00;74.50;;;;;;4909794;29;19940;-78
2020/12/10 06:38:06;;;;;;;;;;;20.90;74.60;;;;;;4921318;29;20029;-79
2020/12/10 06:40:42;;;;;;;;;;;20.90;74.20;;;;;;4915243;29;20413;-80
2020/12/10 06:43:10;;;;;;;;;;;20.90;73.80;;;;;;4915326;29;19926;-79
2020/12/10 06:45:38;;;;;;;;;;;21.00;73.80;;;;;;4914410;29;20277;-78
2020/12/10 06:48:08;;;;;;;;;;;21.00;73.10;;;;;;4920812;29;19926;-79
2020/12/10 06:50:39;;;;;;;;;;;21.00;73.60;;;;;;4898334;29;19919;-81
2020/12/10 06:53:09;;;;;;;;;;;21.00;73.50;;;;;;4906655;29;19943;-85
2020/12/10 06:55:51;;;;;;;;;;;21.10;73.50;;;;;;4926345;29;19926;-80
2020/12/10 06:58:19;;;;;;;;;;;21.10;72.20;;;;;;4924112;29;20021;-80
2020/12/10 07:00:51;;;;;;;;;;;21.10;71.80;;;;;;4914472;29;20006;-79
2020/12/10 07:03:26;;;;;;;;;;;20.90;71.70;;;;;;4917664;29;19911;-79
2020/12/10 07:05:53;;;;;;;;;;;20.80;71.50;;;;;;4908690;29;20335;-79
2020/12/10 07:08:20;;;;;;;;;;;20.70;72.00;;;;;;4904318;29;19915;-79
2020/12/10 07:10:51;;;;;;;;;;;20.80;72.00;;;;;;4899293;29;20251;-78
2020/12/10 07:13:29;;;;;;;;;;;20.90;71.80;;;;;;4911227;29;19963;-76
2020/12/10 07:15:56;;;;;;;;;;;20.90;71.00;;;;;;4912723;29;19911;-79
2020/12/10 07:18:23;;;;;;;;;;;20.70;71.60;;;;;;4912102;29;19919;-79
2020/12/10 07:20:49;;;;;;;;;;;20.70;72.20;;;;;;4911993;29;19912;-77
2020/12/10 07:23:16;;;;;;;;;;;20.80;72.60;;;;;;4923634;29;19907;-79
2020/12/10 07:25:43;;;;;;;;;;;20.80;72.50;;;;;;4912785;29;20355;-77
2020/12/10 07:28:09;;;;;;;;;;;20.80;72.20;;;;;;4895576;29;19922;-76
2020/12/10 07:30:36;;;;;;;;;;;20.80;72.10;;;;;;4912628;29;19915;-79
2020/12/10 07:33:04;;;;;;;;;;;20.80;72.50;;;;;;4912958;29;19915;-78
2020/12/10 07:35:32;;;;;;;;;;;20.70;72.90;;;;;;4913226;29;19915;-79
2020/12/10 07:38:16;;;;;;;;;;;20.70;74.60;;;;;;4913855;29;20386;-77
2020/12/10 07:40:44;;;;;;;;;;;20.60;75.20;;;;;;4915178;29;20160;-77
2020/12/10 07:43:11;;;;;;;;;;;20.60;73.60;;;;;;4901410;29;20255;-80
2020/12/10 07:45:38;;;;;;;;;;;20.60;73.60;;;;;;4917184;29;19911;-79
2020/12/10 07:48:08;;;;;;;;;;;20.60;73.60;;;;;;4917992;29;19983;-78
2020/12/10 07:50:44;;;;;;;;;;;20.70;77.00;;;;;;4926498;29;19918;-81
2020/12/10 07:53:11;;;;;;;;;;;20.50;76.60;;;;;;4919467;29;19922;-80
2020/12/10 07:55:45;;;;;;;;;;;20.30;76.50;;;;;;4931899;29;19966;-78
2020/12/10 07:58:12;;;;;;;;;;;20.10;75.70;;;;;;4917237;29;20021;-77
2020/12/10 08:00:40;;;;;;;;;;;20.10;75.60;;;;;;4921157;29;19907;-77
2020/12/10 08:03:18;;;;;;;;;;;20.10;74.80;;;;;;4905607;29;19915;-77
2020/12/10 08:05:54;;;;;;;;;;;20.10;74.50;;;;;;4923649;29;19911;-80
2020/12/10 08:08:32;;;;;;;;;;;20.20;74.50;;;;;;4919286;29;19911;-77
2020/12/10 08:11:27;;;;;;;;;;;20.30;74.30;;;;;;4917731;29;19911;-80
2020/12/10 08:13:55;;;;;;;;;;;20.30;76.70;;;;;;4883428;29;19907;-77
2020/12/10 08:16:22;;;;;;;;;;;20.00;79.60;;;;;;4920300;29;19919;-83
2020/12/10 08:18:48;;;;;;;;;;;19.70;83.00;;;;;;4902776;29;19938;-78
2020/12/10 08:21:31;;;;;;;;;;;19.40;82.90;;;;;;4910569;29;19918;-76
2020/12/10 08:24:12;;;;;;;;;;;19.30;83.70;;;;;;4924126;29;19931;-78
2020/12/10 08:26:50;;;;;;;;;;;;;;;;;;;;;
2020/12/10 08:29:17;;;;;;;;;;;19.10;84.60;;;;;;4926047;29;19982;-78
2020/12/10 08:31:43;;;;;;;;;;;19.10;81.10;;;;;;4920244;29;19946;-84
2020/12/10 08:34:17;;;;;;;;;;;19.10;82.90;;;;;;4911722;29;20330;-85
2020/12/10 08:36:45;;;;;;;;;;;19.00;82.10;;;;;;4912329;29;19907;-79
2020/12/10 08:39:11;;;;;;;;;;;19.10;80.90;;;;;;4919878;29;19919;-81
2020/12/10 08:41:38;;;;;;;;;;;19.10;78.50;;;;;;4917730;29;19918;-75
2020/12/10 08:44:09;;;;;;;;;;;19.20;79.10;;;;;;4916691;29;19914;-83
2020/12/10 08:46:36;;;;;;;;;;;19.30;76.80;;;;;;4916886;29;19967;-74
2020/12/10 08:49:22;;;;;;;;;;;19.40;76.80;;;;;;4899846;29;20111;-79
2020/12/10 08:51:50;;;;;;;;;;;19.40;76.40;;;;;;4903327;29;19915;-82
2020/12/10 08:54:17;;;;;;;;;;;19.40;74.20;;;;;;4915725;29;19911;-75
2020/12/10 08:56:47;;;;;;;;;;;19.50;74.30;;;;;;4934681;29;19929;-80
2020/12/10 08:59:14;;;;;;;;;;;19.50;74.10;;;;;;4928209;29;20009;-81
2020/12/10 09:01:51;;;;;;;;;;;19.60;73.90;;;;;;4915668;29;19907;-77
2020/12/10 09:04:18;;;;;;;;;;;19.70;73.00;;;;;;4915858;29;19946;-80
2020/12/10 09:06:45;;;;;;;;;;;19.60;72.40;;;;;;4916001;29;19922;-74
2020/12/10 09:09:14;;;;;;;;;;;19.70;72.20;;;;;;4924332;29;20429;-79
2020/12/10 09:11:47;;;;;;;;;;;19.60;73.10;;;;;;4916323;29;19961;-74
2020/12/10 09:14:17;;;;;;;;;;;19.60;73.50;;;;;;4915500;29;19910;-79
2020/12/10 09:16:43;;;;;;;;;;;19.60;73.50;;;;;;4916053;29;20310;-76
2020/12/10 09:19:10;;;;;;;;;;;19.60;73.00;;;;;;4915134;29;20045;-83
2020/12/10 09:21:37;;;;;;;;;;;19.70;72.60;;;;;;4915895;29;20231;-77
2020/12/10 09:24:04;;;;;;;;;;;19.60;72.40;;;;;;4915124;29;20054;-81
2020/12/10 09:26:31;;;;;;;;;;;19.70;73.10;;;;;;4879203;29;19919;-77
2020/12/10 09:29:03;;;;;;;;;;;19.70;72.30;;;;;;4915395;29;20362;-81
2020/12/10 09:31:29;;;;;;;;;;;19.70;72.30;;;;;;4905555;29;20012;-81
2020/12/10 09:33:56;;;;;;;;;;;19.70;71.60;;;;;;4897364;29;19994;-79
2020/12/10 09:36:26;;;;;;;;;;;19.70;72.00;;;;;;4897415;29;19907;-77
2020/12/10 09:38:52;;;;;;;;;;;19.70;71.40;;;;;;4915214;29;19915;-77
2020/12/10 09:41:22;;;;;;;;;;;19.70;71.30;;;;;;4915155;29;19919;-80
2020/12/10 09:43:48;;;;;;;;;;;19.60;70.80;;;;;;4915626;29;19907;-79
2020/12/10 09:46:15;;;;;;;;;;;19.60;70.60;;;;;;4915466;29;19911;-79
2020/12/10 09:48:42;;;;;;;;;;;19.60;70.20;;;;;;4918378;29;19983;-76
2020/12/10 09:51:10;;;;;;;;;;;19.60;70.30;;;;;;4915826;29;19914;-78
2020/12/10 09:53:45;;;;;;;;;;;19.60;70.50;;;;;;4905685;29;19919;-74
2020/12/10 09:58:44;;;;;;;;;;;19.60;70.30;;;;;;4917688;29;19923;-76
2020/12/10 10:01:11;;;;;;;;;;;19.70;70.20;;;;;;4920988;29;19911;-80
2020/12/10 10:03:38;;;;;;;;;;;19.70;70.20;;;;;;4895693;29;20468;-75
2020/12/10 10:06:05;;;;;;;;;;;19.60;70.00;;;;;;4896054;29;19919;-76
2020/12/10 10:08:33;;;;;;;;;;;19.60;69.30;;;;;;4913691;29;19907;-78
2020/12/10 10:10:59;;;;;;;;;;;19.60;69.50;;;;;;4915448;29;20006;-76
2020/12/10 10:13:26;;;;;;;;;;;19.60;69.30;;;;;;4915234;29;19915;-83
2020/12/10 10:15:53;;;;;;;;;;;19.60;68.50;;;;;;4915435;29;19914;-81
2020/12/10 10:18:22;;;;;;;;;;;19.60;68.40;;;;;;4915636;29;20010;-81
2020/12/10 10:20:49;;;;;;;;;;;19.60;68.30;;;;;;4915578;29;19907;-79
2020/12/10 10:23:15;;;;;;;;;;;19.60;67.90;;;;;;4916275;29;20059;-77
2020/12/10 10:25:42;;;;;;;;;;;19.50;67.80;;;;;;4897719;29;19981;-77
2020/12/10 10:28:09;;;;;;;;;;;19.50;67.90;;;;;;4914207;29;19958;-77
2020/12/10 10:30:35;;;;;;;;;;;19.50;68.30;;;;;;4911477;29;19942;-78
2020/12/10 10:33:02;;;;;;;;;;;19.50;68.40;;;;;;4897381;29;20373;-78
2020/12/10 10:35:29;;;;;;;;;;;19.60;68.60;;;;;;4914204;29;19950;-79
2020/12/10 10:37:55;;;;;;;;;;;19.60;68.30;;;;;;4917185;29;20270;-80
2020/12/10 10:40:24;;;;;;;;;;;19.50;68.50;;;;;;4917873;29;20338;-80
2020/12/10 10:42:51;;;;;;;;;;;19.50;68.60;;;;;;4918613;29;19997;-77
2020/12/10 10:45:18;;;;;;;;;;;19.50;68.40;;;;;;4923501;29;19907;-78
2020/12/10 10:47:45;;;;;;;;;;;19.50;68.40;;;;;;4924855;29;20045;-75
2020/12/10 10:50:12;;;;;;;;;;;19.50;67.90;;;;;;4918803;29;19942;-75
2020/12/10 10:52:38;;;;;;;;;;;19.50;67.60;;;;;;4918029;29;19911;-82
2020/12/10 10:55:05;;;;;;;;;;;19.50;67.40;;;;;;4922303;29;19914;-80
2020/12/10 10:57:32;;;;;;;;;;;19.50;67.80;;;;;;4925596;29;20014;-75
2020/12/10 10:59:58;;;;;;;;;;;19.50;67.30;;;;;;4919024;29;19911;-81
2020/12/10 11:02:25;;;;;;;;;;;19.40;67.50;;;;;;4918626;29;20030;-74
2020/12/10 11:04:53;;;;;;;;;;;19.50;67.60;;;;;;4918104;29;20346;-81
2020/12/10 11:07:19;;;;;;;;;;;19.50;67.40;;;;;;4922581;29;19911;-80
2020/12/10 11:09:46;;;;;;;;;;;19.50;67.50;;;;;;4927015;29;19910;-76
2020/12/10 11:12:13;;;;;;;;;;;19.50;67.80;;;;;;4923893;29;19966;-80
2020/12/10 11:14:41;;;;;;;;;;;19.50;67.70;;;;;;4920428;29;19946;-77
2020/12/10 11:17:07;;;;;;;;;;;19.50;67.80;;;;;;4921251;29;19947;-78
2020/12/10 11:19:34;;;;;;;;;;;19.50;66.90;;;;;;4921976;29;19926;-83
2020/12/10 11:22:01;;;;;;;;;;;19.50;66.40;;;;;;4931792;29;19911;-75
2020/12/10 11:24:27;;;;;;;;;;;19.50;66.60;;;;;;4944712;29;19970;-77
2020/12/10 11:26:55;;;;;;;;;;;19.40;67.40;;;;;;4923193;29;19913;-81
2020/12/10 11:29:22;;;;;;;;;;;19.50;67.80;;;;;;4944158;29;19915;-81
2020/12/10 11:31:48;;;;;;;;;;;19.50;67.80;;;;;;4940930;29;19931;-80
2020/12/10 11:34:16;;;;;;;;;;;19.40;71.00;;;;;;4932050;29;19907;-81
2020/12/10 11:36:44;;;;;;;;;;;19.40;72.20;;;;;;4923601;29;20251;-76
2020/12/10 11:39:11;;;;;;;;;;;19.40;73.10;;;;;;4928588;29;19930;-79
2020/12/10 11:41:38;;;;;;;;;;;19.40;74.10;;;;;;4935642;29;19950;-81
2020/12/10 11:44:04;;;;;;;;;;;19.40;74.10;;;;;;4948220;29;19978;-81
2020/12/10 11:46:32;;;;;;;;;;;19.40;74.70;;;;;;4940775;29;19943;-80
2020/12/10 11:48:59;;;;;;;;;;;19.40;74.90;;;;;;4954284;29;19926;-81
2020/12/10 11:51:26;;;;;;;;;;;19.40;75.00;;;;;;4950669;29;20315;-80
2020/12/10 11:53:53;;;;;;;;;;;19.40;75.20;;;;;;4937912;29;20263;-84
2020/12/10 11:56:20;;;;;;;;;;;19.30;77.70;;;;;;4925797;29;19927;-81
2020/12/10 11:58:46;;;;;;;;;;;18.80;80.00;;;;;;4914446;29;20294;-82
2020/12/10 12:01:13;;;;;;;;;;;18.40;81.40;;;;;;4928312;29;19910;-79
2020/12/10 12:03:40;;;;;;;;;;;18.10;81.00;;;;;;4937857;29;19910;-82
2020/12/10 12:06:06;;;;;;;;;;;17.90;80.30;;;;;;4910552;29;20318;-82
2020/12/10 12:08:35;;;;;;;;;;;17.90;79.60;;;;;;4919277;29;19907;-81
2020/12/10 12:11:15;;;;;;;;;;;18.00;78.70;;;;;;4918554;29;19911;-82
2020/12/10 12:13:42;;;;;;;;;;;18.10;78.40;;;;;;4924475;29;19919;-78
2020/12/10 12:16:11;;;;;;;;;;;18.20;80.80;;;;;;4923652;29;20002;-76
2020/12/10 12:18:37;;;;;;;;;;;18.00;86.70;;;;;;4919388;29;19977;-76
2020/12/10 12:21:04;;;;;;;;;;;17.70;85.60;;;;;;4920076;29;19970;-76
2020/12/10 12:23:34;;;;;;;;;;;17.40;86.20;;;;;;4919663;29;19911;-78
2020/12/10 12:26:03;;;;;;;;;;;17.30;89.00;;;;;;4918952;29;19962;-76
2020/12/10 12:28:30;;;;;;;;;;;17.40;89.30;;;;;;4919850;29;19907;-79
2020/12/10 12:31:01;;;;;;;;;;;17.40;88.50;;;;;;4921858;29;19915;-78
2020/12/10 12:33:28;;;;;;;;;;;17.40;89.30;;;;;;4927361;29;19994;-76
2020/12/10 12:35:56;;;;;;;;;;;17.40;90.00;;;;;;4929292;29;19919;-80
2020/12/10 12:38:22;;;;;;;;;;;17.40;87.70;;;;;;4941982;29;19918;-82
2020/12/10 12:40:49;;;;;;;;;;;17.40;88.50;;;;;;4930726;29;19918;-85
2020/12/10 12:43:16;;;;;;;;;;;17.30;89.70;;;;;;4919393;29;19911;-76
2020/12/10 12:45:42;;;;;;;;;;;17.40;89.20;;;;;;4924320;29;20005;-78
2020/12/10 12:48:09;;;;;;;;;;;17.30;88.40;;;;;;4918932;29;19911;-79
2020/12/10 12:50:38;;;;;;;;;;;17.30;88.40;;;;;;4925552;29;19910;-82
2020/12/10 12:53:05;;;;;;;;;;;17.40;87.20;;;;;;4919911;29;19954;-81
2020/12/10 12:55:36;;;;;;;;;;;17.40;86.60;;;;;;4928208;29;19911;-83
2020/12/10 12:58:03;;;;;;;;;;;17.40;85.40;;;;;;4915252;29;19965;-85
2020/12/10 13:00:30;;;;;;;;;;;17.50;85.10;;;;;;4923263;29;19965;-80
2020/12/10 13:02:58;;;;;;;;;;;17.50;84.20;;;;;;4937586;29;19929;-80
2020/12/10 13:05:25;;;;;;;;;;;17.60;83.10;;;;;;4938594;29;19906;-79
2020/12/10 13:07:51;;;;;;;;;;;17.60;81.40;;;;;;4933194;29;19970;-76
2020/12/10 13:10:18;;;;;;;;;;;17.70;82.00;;;;;;4917496;29;20354;-77
2020/12/10 13:12:45;;;;;;;;;;;17.70;82.50;;;;;;4918977;29;20350;-83
2020/12/10 13:15:12;;;;;;;;;;;17.80;79.90;;;;;;4918732;29;19918;-77
2020/12/10 13:17:39;;;;;;;;;;;17.80;79.60;;;;;;4923250;29;19918;-81
2020/12/10 13:20:06;;;;;;;;;;;17.80;80.40;;;;;;4936236;29;19964;-79
2020/12/10 13:22:32;;;;;;;;;;;17.90;79.90;;;;;;4920595;29;19949;-82
2020/12/10 13:24:59;;;;;;;;;;;17.90;79.40;;;;;;4920706;29;19907;-83
2020/12/10 13:27:27;;;;;;;;;;;18.00;77.80;;;;;;4918908;29;20645;-79
2020/12/10 13:29:53;;;;;;;;;;;18.00;78.90;;;;;;4937499;29;19907;-80
2020/12/10 13:32:20;;;;;;;;;;;18.00;77.60;;;;;;4918941;29;20389;-83
2020/12/10 13:34:47;;;;;;;;;;;18.00;76.80;;;;;;4901410;29;19907;-81
2020/12/10 13:37:14;;;;;;;;;;;18.00;76.00;;;;;;4928971;29;19911;-81
2020/12/10 13:39:41;;;;;;;;;;;18.10;75.30;;;;;;4936518;29;19967;-76
2020/12/10 13:42:10;;;;;;;;;;;18.10;76.40;;;;;;4918515;29;20453;-81
2020/12/10 13:44:38;;;;;;;;;;;18.10;74.10;;;;;;4928708;29;19911;-83
2020/12/10 13:47:05;;;;;;;;;;;18.10;75.10;;;;;;4937380;29;19907;-82
2020/12/10 13:49:31;;;;;;;;;;;18.10;74.40;;;;;;4936711;29;20013;-84
2020/12/10 13:51:59;;;;;;;;;;;18.10;72.60;;;;;;4920365;29;19911;-78
2020/12/10 13:54:29;;;;;;;;;;;18.10;72.00;;;;;;4918158;29;19918;-83
2020/12/10 13:56:55;;;;;;;;;;;18.20;72.00;;;;;;4907730;29;19919;-83
2020/12/10 13:59:22;;;;;;;;;;;18.30;71.30;;;;;;4929418;29;19919;-82
2020/12/10 14:01:49;;;;;;;;;;;18.30;70.40;;;;;;4914031;29;19907;-80
2020/12/10 14:04:18;;;;;;;;;;;18.40;70.10;;;;;;4917068;29;19922;-80
2020/12/10 14:06:47;;;;;;;;;;;18.40;69.60;;;;;;4922446;29;19946;-82
2020/12/10 14:09:17;;;;;;;;;;;18.40;69.10;;;;;;4937019;29;19950;-83
2020/12/10 14:11:44;;;;;;;;;;;18.40;68.90;;;;;;4918746;29;19918;-82
2020/12/10 14:14:11;;;;;;;;;;;18.40;69.40;;;;;;4907005;29;19944;-83
2020/12/10 14:16:41;;;;;;;;;;;18.40;69.80;;;;;;4936738;29;19907;-83
2020/12/10 14:19:07;;;;;;;;;;;18.30;70.20;;;;;;4919512;29;19914;-78
2020/12/10 14:21:34;;;;;;;;;;;18.40;70.60;;;;;;4903376;29;20383;-82
2020/12/10 14:24:01;;;;;;;;;;;18.50;70.40;;;;;;4918908;29;19915;-79
2020/12/10 14:26:28;;;;;;;;;;;18.40;68.90;;;;;;4917509;29;19914;-81
2020/12/10 14:28:54;;;;;;;;;;;18.40;68.70;;;;;;4917825;29;19910;-82